Time;durP1;ratioP1;P1;durP2;ratioP2;P2;SDS_P1;SDS_P2;PMS_P1;PMS_P2;Temp;Humidity;BMP_temperature;BMP_pressure;BME280_temperature;BME280_humidity;BME280_pressure;Samples;Min_cycle;Max_cycle;Signal;HPM_P1;HPM_P2
2022/05/04 00:01:13;;;;;;;;;16.75;10.75;;;;;;;;5106009;27;61961;-75
2022/05/04 00:03:39;;;;;;;;;11.00;8.75;;;;;;;;5105881;27;61976;-75
2022/05/04 00:06:04;;;;;;;;;13.50;12.75;;;;;;;;5105808;27;61697;-75
2022/05/04 00:08:30;;;;;;;;;14.25;12.00;;;;;;;;5104556;27;61964;-75
2022/05/04 00:10:55;;;;;;;;;17.50;13.00;;;;;;;;5105817;27;62203;-76
2022/05/04 00:13:20;;;;;;;;;13.50;12.00;;;;;;;;5105762;27;62287;-75
2022/05/04 00:15:46;;;;;;;;;13.50;11.50;;;;;;;;5104597;27;62114;-75
2022/05/04 00:18:11;;;;;;;;;17.00;12.25;;;;;;;;5105137;27;62654;-75
2022/05/04 00:20:37;;;;;;;;;18.25;16.25;;;;;;;;5105540;27;62088;-75
2022/05/04 00:23:02;;;;;;;;;20.00;11.00;;;;;;;;5103963;27;61759;-75
2022/05/04 00:25:27;;;;;;;;;20.50;12.50;;;;;;;;5106027;27;61989;-75
2022/05/04 00:27:52;;;;;;;;;19.50;13.50;;;;;;;;5104922;27;63027;-75
2022/05/04 00:30:18;;;;;;;;;22.25;14.00;;;;;;;;5105560;27;61867;-75
2022/05/04 00:32:46;;;;;;;;;16.00;12.75;;;;;;;;5105903;27;61896;-75
2022/05/04 00:35:11;;;;;;;;;12.75;11.50;;;;;;;;5104258;27;61687;-75
2022/05/04 00:37:36;;;;;;;;;16.00;9.25;;;;;;;;5104383;27;61893;-75
2022/05/04 00:40:02;;;;;;;;;18.25;11.50;;;;;;;;5103203;27;62389;-75
2022/05/04 00:42:27;;;;;;;;;11.00;11.00;;;;;;;;5105508;27;61742;-75
2022/05/04 00:44:52;;;;;;;;;12.50;9.00;;;;;;;;5105684;27;61877;-75
2022/05/04 00:47:18;;;;;;;;;9.25;9.25;;;;;;;;5103409;27;63102;-75
2022/05/04 00:49:46;;;;;;;;;16.00;11.25;;;;;;;;5094544;27;61873;-75
2022/05/04 00:52:13;;;;;;;;;15.50;10.50;;;;;;;;5103598;27;62039;-75
2022/05/04 00:54:39;;;;;;;;;10.75;10.75;;;;;;;;5105563;27;61914;-75
2022/05/04 00:57:05;;;;;;;;;18.50;15.75;;;;;;;;5104482;27;61679;-75
2022/05/04 00:59:31;;;;;;;;;12.50;11.25;;;;;;;;5105027;27;61891;-75
2022/05/04 01:01:57;;;;;;;;;18.00;12.75;;;;;;;;5103704;27;61806;-75
2022/05/04 01:04:22;;;;;;;;;16.75;13.75;;;;;;;;5103802;27;61762;-75
2022/05/04 01:06:47;;;;;;;;;13.50;10.00;;;;;;;;5102469;27;62700;-75
2022/05/04 01:09:13;;;;;;;;;19.50;15.25;;;;;;;;5104343;27;61761;-75
2022/05/04 01:11:38;;;;;;;;;12.00;11.00;;;;;;;;5103583;27;61845;-75
2022/05/04 01:14:05;;;;;;;;;12.75;10.50;;;;;;;;5103673;27;62150;-75
2022/05/04 01:16:31;;;;;;;;;16.00;12.25;;;;;;;;5104286;27;61967;-75
2022/05/04 01:18:57;;;;;;;;;16.50;9.50;;;;;;;;5104487;27;61849;-75
2022/05/04 01:21:22;;;;;;;;;15.75;12.50;;;;;;;;5104218;27;61954;-75
2022/05/04 01:23:47;;;;;;;;;16.50;13.50;;;;;;;;5104897;27;62175;-75
2022/05/04 01:26:16;;;;;;;;;18.75;14.00;;;;;;;;5102383;27;65027;-75
2022/05/04 01:28:42;;;;;;;;;18.00;13.75;;;;;;;;5104503;27;61840;-75
2022/05/04 01:31:07;;;;;;;;;17.25;12.00;;;;;;;;5103156;27;61940;-75
2022/05/04 01:33:32;;;;;;;;;16.75;11.00;;;;;;;;5103032;27;61729;-75
2022/05/04 01:35:58;;;;;;;;;12.75;12.25;;;;;;;;5103671;27;61752;-75
2022/05/04 01:38:23;;;;;;;;;22.00;15.00;;;;;;;;5102245;27;62012;-75
2022/05/04 01:40:48;;;;;;;;;15.25;11.50;;;;;;;;5104646;27;61747;-75
2022/05/04 01:43:14;;;;;;;;;19.75;13.25;;;;;;;;5104748;27;61707;-75
2022/05/04 01:45:39;;;;;;;;;22.50;15.25;;;;;;;;5103903;27;61906;-75
2022/05/04 01:48:04;;;;;;;;;21.00;13.00;;;;;;;;5102221;27;62100;-75
2022/05/04 01:50:30;;;;;;;;;15.50;15.25;;;;;;;;5103639;27;61718;-75
2022/05/04 01:52:55;;;;;;;;;19.50;14.75;;;;;;;;5104608;27;61848;-75
2022/05/04 01:55:22;;;;;;;;;17.00;12.75;;;;;;;;5103545;27;62815;-75
2022/05/04 01:57:47;;;;;;;;;15.50;14.50;;;;;;;;5103997;27;62164;-75
2022/05/04 02:00:12;;;;;;;;;16.00;13.50;;;;;;;;5104011;27;62124;-75
2022/05/04 02:02:38;;;;;;;;;16.25;12.50;;;;;;;;5104001;27;61766;-75
2022/05/04 02:05:04;;;;;;;;;17.25;13.00;;;;;;;;5103507;27;61922;-75
2022/05/04 02:07:29;;;;;;;;;20.00;14.25;;;;;;;;5103878;27;61795;-75
2022/05/04 02:09:55;;;;;;;;;19.25;16.50;;;;;;;;5103789;27;61832;-75
2022/05/04 02:12:20;;;;;;;;;20.75;16.50;;;;;;;;5104506;27;61764;-76
2022/05/04 02:14:45;;;;;;;;;16.50;12.75;;;;;;;;5103229;27;61754;-75
2022/05/04 02:17:10;;;;;;;;;20.75;14.00;;;;;;;;5103590;27;61786;-75
2022/05/04 02:19:36;;;;;;;;;18.75;10.50;;;;;;;;5103547;27;61846;-75
2022/05/04 02:22:01;;;;;;;;;14.50;10.00;;;;;;;;5103730;27;62043;-75
2022/05/04 02:24:26;;;;;;;;;13.25;10.00;;;;;;;;5102877;27;62819;-75
2022/05/04 02:26:52;;;;;;;;;16.00;14.75;;;;;;;;5103698;27;61752;-75
2022/05/04 02:29:17;;;;;;;;;21.00;15.00;;;;;;;;5103742;27;62007;-75
2022/05/04 02:31:42;;;;;;;;;18.50;14.25;;;;;;;;5101959;27;62224;-75
2022/05/04 02:34:07;;;;;;;;;15.75;14.00;;;;;;;;5102882;27;61838;-75
2022/05/04 02:39:17;;;;;;;;;17.00;14.75;;;;;;;;5103145;27;61738;-75
2022/05/04 02:41:42;;;;;;;;;16.25;13.00;;;;;;;;5103832;27;61711;-75
2022/05/04 02:44:09;;;;;;;;;20.50;15.25;;;;;;;;5103060;27;61804;-75
2022/05/04 02:46:34;;;;;;;;;23.00;15.00;;;;;;;;5101740;27;61823;-75
2022/05/04 02:49:00;;;;;;;;;14.50;12.50;;;;;;;;5103291;27;61891;-75
2022/05/04 02:51:25;;;;;;;;;12.00;10.00;;;;;;;;5103389;27;62116;-75
2022/05/04 02:53:51;;;;;;;;;15.50;12.00;;;;;;;;5103117;27;62227;-75
2022/05/04 02:56:16;;;;;;;;;12.00;9.50;;;;;;;;5103494;27;61890;-75
2022/05/04 02:58:42;;;;;;;;;24.00;14.50;;;;;;;;5102889;27;61892;-75
2022/05/04 03:03:59;;;;;;;;;16.50;15.25;;;;;;;;5102606;27;61860;-75
2022/05/04 03:06:25;;;;;;;;;17.50;13.00;;;;;;;;5102645;27;61649;-75
2022/05/04 03:08:50;;;;;;;;;15.25;12.25;;;;;;;;5102731;27;62402;-75
2022/05/04 03:14:00;;;;;;;;;16.25;13.75;;;;;;;;5102582;27;61990;-75
2022/05/04 03:16:25;;;;;;;;;19.25;15.00;;;;;;;;5102765;27;62090;-75
2022/05/04 03:18:51;;;;;;;;;21.75;16.00;;;;;;;;5102905;27;61909;-75
2022/05/04 03:21:16;;;;;;;;;22.25;13.25;;;;;;;;5102737;27;62030;-75
2022/05/04 03:23:41;;;;;;;;;17.25;11.75;;;;;;;;5102262;27;61905;-75
2022/05/04 03:26:10;;;;;;;;;20.75;11.75;;;;;;;;5102848;27;61948;-75
2022/05/04 03:28:35;;;;;;;;;23.50;16.25;;;;;;;;5102848;27;61738;-75
2022/05/04 03:31:01;;;;;;;;;18.25;14.25;;;;;;;;5102089;27;61664;-75
2022/05/04 03:33:26;;;;;;;;;16.75;15.00;;;;;;;;5101968;27;62034;-75
2022/05/04 03:35:51;;;;;;;;;11.50;9.75;;;;;;;;5102273;27;61883;-75
2022/05/04 03:38:17;;;;;;;;;25.25;19.00;;;;;;;;5102055;27;61719;-75
2022/05/04 03:40:42;;;;;;;;;21.00;16.25;;;;;;;;5102889;27;62105;-75
2022/05/04 03:43:07;;;;;;;;;17.50;13.25;;;;;;;;5102320;27;62795;-75
2022/05/04 03:45:33;;;;;;;;;18.25;16.00;;;;;;;;5102210;27;61723;-75
2022/05/04 03:47:58;;;;;;;;;20.50;15.50;;;;;;;;5102564;27;61925;-75
2022/05/04 03:50:23;;;;;;;;;25.50;14.75;;;;;;;;5102477;27;61695;-75
2022/05/04 03:52:49;;;;;;;;;13.50;12.00;;;;;;;;5099895;27;64716;-75
2022/05/04 03:55:14;;;;;;;;;15.25;14.00;;;;;;;;5102809;27;61891;-75
2022/05/04 03:57:39;;;;;;;;;18.75;13.25;;;;;;;;5101200;27;61925;-75
2022/05/04 04:00:05;;;;;;;;;16.75;14.75;;;;;;;;5102024;27;61967;-75
2022/05/04 04:02:30;;;;;;;;;16.50;12.00;;;;;;;;5100337;27;64540;-75
2022/05/04 04:04:55;;;;;;;;;16.75;11.75;;;;;;;;5100852;27;61770;-75
2022/05/04 04:07:21;;;;;;;;;18.50;15.25;;;;;;;;5102215;27;62316;-75
2022/05/04 04:09:46;;;;;;;;;11.00;10.25;;;;;;;;5102059;27;61955;-75
2022/05/04 04:12:11;;;;;;;;;13.75;12.00;;;;;;;;5101994;27;61818;-75
2022/05/04 04:14:36;;;;;;;;;21.00;13.75;;;;;;;;5101735;27;62099;-75
2022/05/04 04:17:02;;;;;;;;;14.25;11.75;;;;;;;;5102382;27;62299;-75
2022/05/04 04:19:27;;;;;;;;;19.25;15.25;;;;;;;;5102489;27;62737;-75
2022/05/04 04:21:53;;;;;;;;;14.00;11.50;;;;;;;;5101450;27;62728;-75
2022/05/04 04:24:20;;;;;;;;;19.50;13.75;;;;;;;;5100557;27;61931;-75
2022/05/04 04:26:45;;;;;;;;;20.75;14.00;;;;;;;;5102315;27;61817;-75
2022/05/04 04:29:11;;;;;;;;;20.50;18.75;;;;;;;;5101794;27;62088;-75
2022/05/04 04:31:36;;;;;;;;;19.00;12.25;;;;;;;;5100168;27;63171;-75
2022/05/04 04:34:02;;;;;;;;;23.50;14.25;;;;;;;;5101800;27;61998;-75
2022/05/04 04:36:27;;;;;;;;;17.50;14.75;;;;;;;;5101910;27;62025;-75
2022/05/04 04:38:53;;;;;;;;;19.50;16.25;;;;;;;;5101295;27;62149;-75
2022/05/04 04:41:18;;;;;;;;;19.75;13.75;;;;;;;;5101499;27;61608;-75
2022/05/04 04:43:43;;;;;;;;;13.75;13.25;;;;;;;;5104441;27;61772;-75
2022/05/04 04:46:08;;;;;;;;;15.50;14.25;;;;;;;;5105143;27;62155;-75
2022/05/04 04:48:34;;;;;;;;;14.75;12.25;;;;;;;;5105354;27;61777;-75
2022/05/04 04:50:59;;;;;;;;;21.00;16.00;;;;;;;;5104061;27;62262;-75
2022/05/04 04:53:25;;;;;;;;;23.00;13.25;;;;;;;;5104038;27;61979;-75
2022/05/04 04:55:50;;;;;;;;;15.25;12.50;;;;;;;;5105409;27;61951;-75
2022/05/04 04:58:16;;;;;;;;;17.00;13.75;;;;;;;;5103355;27;61827;-75
2022/05/04 05:00:41;;;;;;;;;19.25;11.75;;;;;;;;5103214;27;63435;-75
2022/05/04 05:03:07;;;;;;;;;18.50;15.50;;;;;;;;5104880;27;61813;-74
2022/05/04 05:05:32;;;;;;;;;25.00;16.00;;;;;;;;5104976;27;62003;-75
2022/05/04 05:07:57;;;;;;;;;10.00;7.75;;;;;;;;5103063;27;61944;-75
2022/05/04 05:10:23;;;;;;;;;28.00;15.75;;;;;;;;5104381;27;61869;-75
2022/05/04 05:12:50;;;;;;;;;27.25;15.00;;;;;;;;5104534;27;62507;-75
2022/05/04 05:17:59;;;;;;;;;16.50;11.00;;;;;;;;5105220;27;62381;-75
2022/05/04 05:20:25;;;;;;;;;17.75;14.25;;;;;;;;5104146;27;62130;-75
2022/05/04 05:22:50;;;;;;;;;17.25;13.00;;;;;;;;5104475;27;62084;-75
2022/05/04 05:25:15;;;;;;;;;15.50;13.25;;;;;;;;5104566;27;61695;-75
2022/05/04 05:27:41;;;;;;;;;16.75;14.50;;;;;;;;5102943;27;61822;-75
2022/05/04 05:30:06;;;;;;;;;15.75;13.75;;;;;;;;5103765;27;62152;-74
2022/05/04 05:32:32;;;;;;;;;24.00;13.50;;;;;;;;5104690;27;61694;-75
2022/05/04 05:34:57;;;;;;;;;20.50;14.25;;;;;;;;5104518;27;61688;-75
2022/05/04 05:37:22;;;;;;;;;12.25;6.75;;;;;;;;5102979;27;62162;-75
2022/05/04 05:39:48;;;;;;;;;17.75;14.50;;;;;;;;5100995;27;64857;-75
2022/05/04 05:42:14;;;;;;;;;20.00;16.50;;;;;;;;5102727;27;62083;-75
2022/05/04 05:44:39;;;;;;;;;14.50;13.75;;;;;;;;5104773;27;61835;-75
2022/05/04 05:47:04;;;;;;;;;20.00;13.25;;;;;;;;5103462;27;61795;-75
2022/05/04 05:49:30;;;;;;;;;20.50;13.75;;;;;;;;5101001;27;62404;-75
2022/05/04 05:51:55;;;;;;;;;18.50;14.00;;;;;;;;5104056;27;61995;-75
2022/05/04 05:54:20;;;;;;;;;19.50;14.00;;;;;;;;5103897;27;61769;-75
2022/05/04 05:56:46;;;;;;;;;18.25;13.75;;;;;;;;5103673;27;61905;-73
2022/05/04 05:59:12;;;;;;;;;18.50;15.75;;;;;;;;5102673;27;62614;-74
2022/05/04 06:01:37;;;;;;;;;19.50;15.75;;;;;;;;5103081;27;61917;-74
2022/05/04 06:04:03;;;;;;;;;19.25;13.25;;;;;;;;5102341;27;61794;-73
2022/05/04 06:06:28;;;;;;;;;15.50;10.25;;;;;;;;5102483;27;61867;-76
2022/05/04 06:08:53;;;;;;;;;14.25;12.50;;;;;;;;5102073;27;61981;-73
2022/05/04 06:11:19;;;;;;;;;13.25;11.75;;;;;;;;5103450;27;61746;-74
2022/05/04 06:13:44;;;;;;;;;22.50;14.00;;;;;;;;5104076;27;61822;-79
2022/05/04 06:16:09;;;;;;;;;18.00;15.25;;;;;;;;5094204;27;62007;-76
2022/05/04 06:18:35;;;;;;;;;18.75;12.75;;;;;;;;5098689;27;62080;-76
2022/05/04 06:21:00;;;;;;;;;21.00;16.00;;;;;;;;5100193;27;61949;-76
2022/05/04 06:23:26;;;;;;;;;18.00;13.25;;;;;;;;5100391;27;62016;-76
2022/05/04 06:25:51;;;;;;;;;19.50;16.75;;;;;;;;5101299;27;62003;-75
2022/05/04 06:28:16;;;;;;;;;17.75;12.00;;;;;;;;5101772;27;61807;-75
2022/05/04 06:36:09;;;;;;;;;19.00;14.75;;;;;;;;5101213;27;62480;-75
2022/05/04 06:38:35;;;;;;;;;15.00;11.00;;;;;;;;5100270;27;62080;-75
2022/05/04 06:41:00;;;;;;;;;13.25;11.75;;;;;;;;5102820;27;62072;-75
2022/05/04 06:43:25;;;;;;;;;25.50;15.75;;;;;;;;5103326;27;62050;-75
2022/05/04 06:45:51;;;;;;;;;25.75;15.75;;;;;;;;5101600;27;62173;-75
2022/05/04 06:48:16;;;;;;;;;19.00;12.75;;;;;;;;5101763;27;62241;-75
2022/05/04 06:50:41;;;;;;;;;18.25;15.00;;;;;;;;5100321;27;61838;-75
2022/05/04 06:53:06;;;;;;;;;14.50;11.50;;;;;;;;5102278;27;61937;-75
2022/05/04 06:55:32;;;;;;;;;17.00;11.75;;;;;;;;5102179;27;61842;-75
2022/05/04 06:57:57;;;;;;;;;19.75;16.25;;;;;;;;5101357;27;61917;-75
2022/05/04 07:00:22;;;;;;;;;24.25;16.50;;;;;;;;5099550;27;61902;-75
2022/05/04 07:02:48;;;;;;;;;15.50;13.75;;;;;;;;5101848;27;61817;-75
2022/05/04 07:05:13;;;;;;;;;14.00;14.00;;;;;;;;5101264;27;61818;-75
2022/05/04 07:07:38;;;;;;;;;22.00;13.50;;;;;;;;5099692;27;61922;-75
2022/05/04 07:10:04;;;;;;;;;18.50;15.00;;;;;;;;5098345;27;61886;-75
2022/05/04 07:12:29;;;;;;;;;18.25;14.75;;;;;;;;5085618;27;61824;-75
2022/05/04 07:14:56;;;;;;;;;17.75;15.00;;;;;;;;5097572;27;61574;-75
2022/05/04 07:17:22;;;;;;;;;17.00;14.50;;;;;;;;5099629;27;61798;-75
2022/05/04 07:19:47;;;;;;;;;18.50;16.25;;;;;;;;5089874;27;61911;-76
2022/05/04 07:22:12;;;;;;;;;26.00;18.25;;;;;;;;5102138;27;61792;-77
2022/05/04 07:24:38;;;;;;;;;20.25;14.25;;;;;;;;5102982;27;61816;-79
2022/05/04 07:27:03;;;;;;;;;30.00;15.50;;;;;;;;5101638;27;62757;-74
2022/05/04 07:29:28;;;;;;;;;21.00;14.75;;;;;;;;5102046;27;61815;-75
2022/05/04 07:31:54;;;;;;;;;23.75;16.00;;;;;;;;5102144;27;61824;-76
2022/05/04 07:34:19;;;;;;;;;19.25;15.00;;;;;;;;5101792;27;62008;-76
2022/05/04 07:36:45;;;;;;;;;22.00;15.00;;;;;;;;5100713;27;61877;-76
2022/05/04 07:42:21;;;;;;;;;23.00;16.50;;;;;;;;5101229;27;61972;-76
2022/05/04 07:44:40;;;;;;;;;19.50;16.75;;;;;;;;5098653;27;61758;-76
2022/05/04 07:47:06;;;;;;;;;15.25;15.25;;;;;;;;5101584;27;62111;-76
2022/05/04 07:49:31;;;;;;;;;27.75;18.00;;;;;;;;5100065;27;61698;-76
2022/05/04 07:51:56;;;;;;;;;22.75;15.25;;;;;;;;5101172;27;61945;-84
2022/05/04 07:54:21;;;;;;;;;18.50;15.50;;;;;;;;5102060;27;61935;-76
2022/05/04 07:56:47;;;;;;;;;19.25;16.50;;;;;;;;5100473;27;62088;-80
2022/05/04 07:59:12;;;;;;;;;25.25;16.00;;;;;;;;5100717;27;61680;-75
2022/05/04 08:04:21;;;;;;;;;18.25;16.00;;;;;;;;5102090;27;61778;-76
2022/05/04 08:06:47;;;;;;;;;20.50;18.00;;;;;;;;5100412;27;62187;-77
2022/05/04 08:09:13;;;;;;;;;27.00;16.50;;;;;;;;5101313;27;61770;-75
2022/05/04 08:11:38;;;;;;;;;19.25;16.75;;;;;;;;5101469;27;62079;-75
2022/05/04 08:14:04;;;;;;;;;21.25;16.50;;;;;;;;5101903;27;61813;-75
2022/05/04 08:16:29;;;;;;;;;21.25;16.50;;;;;;;;5101948;27;61710;-75
2022/05/04 08:18:54;;;;;;;;;20.75;17.00;;;;;;;;5104893;27;62019;-75
2022/05/04 08:21:19;;;;;;;;;21.50;17.25;;;;;;;;5101349;27;62745;-75
2022/05/04 08:23:45;;;;;;;;;25.25;18.25;;;;;;;;5103963;27;62149;-76
2022/05/04 08:26:12;;;;;;;;;20.00;14.25;;;;;;;;5104783;27;63042;-76
2022/05/04 08:28:37;;;;;;;;;18.25;17.25;;;;;;;;5089826;27;62380;-77
2022/05/04 08:31:03;;;;;;;;;22.25;19.50;;;;;;;;5105464;27;61776;-76
2022/05/04 08:33:29;;;;;;;;;20.75;15.00;;;;;;;;5102652;27;61954;-76
2022/05/04 08:35:54;;;;;;;;;24.25;17.25;;;;;;;;5102853;27;61830;-78
2022/05/04 08:38:19;;;;;;;;;29.50;19.50;;;;;;;;5103882;27;62305;-76
2022/05/04 08:40:45;;;;;;;;;23.75;19.25;;;;;;;;5104925;27;61990;-76
2022/05/04 08:43:11;;;;;;;;;20.00;14.00;;;;;;;;5105346;27;61767;-76
2022/05/04 08:45:37;;;;;;;;;19.00;15.75;;;;;;;;5103742;27;62705;-77
2022/05/04 08:48:04;;;;;;;;;20.50;16.50;;;;;;;;5105224;27;61902;-76
2022/05/04 08:50:31;;;;;;;;;22.50;16.75;;;;;;;;5104248;27;61887;-76
2022/05/04 08:52:56;;;;;;;;;22.50;19.00;;;;;;;;5104854;27;62002;-75
2022/05/04 08:55:22;;;;;;;;;23.75;21.00;;;;;;;;5104170;27;62021;-76
2022/05/04 08:57:48;;;;;;;;;23.00;15.00;;;;;;;;5103604;27;62102;-74
2022/05/04 09:00:14;;;;;;;;;23.25;19.25;;;;;;;;5106527;27;61993;-76
2022/05/04 09:02:39;;;;;;;;;21.50;17.00;;;;;;;;5105041;27;62123;-75
2022/05/04 09:05:24;;;;;;;;;21.50;18.75;;;;;;;;5104105;27;61785;-75
2022/05/04 09:07:52;;;;;;;;;19.25;13.50;;;;;;;;5104651;27;61672;-75
2022/05/04 09:10:19;;;;;;;;;23.50;17.75;;;;;;;;5105135;27;61738;-75
2022/05/04 09:12:45;;;;;;;;;19.25;15.75;;;;;;;;5103589;27;61729;-75
2022/05/04 09:15:18;;;;;;;;;27.00;20.00;;;;;;;;5104270;27;61689;-75
2022/05/04 09:17:43;;;;;;;;;25.25;18.25;;;;;;;;5104347;27;61913;-75
2022/05/04 09:22:52;;;;;;;;;26.25;18.00;;;;;;;;5084550;27;61912;-75
2022/05/04 09:25:19;;;;;;;;;21.75;20.50;;;;;;;;5083625;28;62490;-74
2022/05/04 09:27:45;;;;;;;;;23.75;18.75;;;;;;;;5083315;28;61809;-75
2022/05/04 09:30:11;;;;;;;;;20.50;15.25;;;;;;;;5100961;27;61845;-74
2022/05/04 09:32:38;;;;;;;;;16.75;15.25;;;;;;;;5102984;27;62023;-76
2022/05/04 09:35:04;;;;;;;;;14.75;13.75;;;;;;;;5102782;27;64208;-75
2022/05/04 09:45:55;;;;;;;;;21.25;19.00;;;;;;;;5103749;27;61972;-75
2022/05/04 09:48:32;;;;;;;;;20.00;20.00;;;;;;;;5102556;27;61955;-75
2022/05/04 09:51:01;;;;;;;;;17.50;14.50;;;;;;;;5102331;27;61779;-74
2022/05/04 09:53:27;;;;;;;;;21.50;15.00;;;;;;;;5104540;27;62120;-75
2022/05/04 09:55:53;;;;;;;;;24.75;18.75;;;;;;;;5101677;27;61913;-74
2022/05/04 09:58:19;;;;;;;;;17.00;14.75;;;;;;;;5104092;27;61856;-75
2022/05/04 10:00:45;;;;;;;;;24.25;17.75;;;;;;;;5103735;27;62006;-74
2022/05/04 10:03:12;;;;;;;;;25.00;18.75;;;;;;;;5103575;27;61980;-75
2022/05/04 10:05:38;;;;;;;;;19.25;13.75;;;;;;;;5103257;27;61756;-74
2022/05/04 10:08:04;;;;;;;;;16.50;13.25;;;;;;;;5102724;27;61686;-74
2022/05/04 10:10:30;;;;;;;;;17.25;13.50;;;;;;;;5103643;27;61794;-74
2022/05/04 10:12:55;;;;;;;;;17.25;15.25;;;;;;;;5102201;27;62004;-74
2022/05/04 10:15:21;;;;;;;;;20.00;12.00;;;;;;;;5100446;27;64478;-75
2022/05/04 10:18:09;;;;;;;;;16.25;12.00;;;;;;;;5102236;27;61755;-76
2022/05/04 10:20:34;;;;;;;;;16.00;13.50;;;;;;;;5096943;27;62063;-76
2022/05/04 10:23:02;;;;;;;;;19.50;17.25;;;;;;;;5102452;27;62165;-75
2022/05/04 10:25:30;;;;;;;;;14.50;10.25;;;;;;;;5101829;27;61680;-77
2022/05/04 10:28:05;;;;;;;;;20.75;16.00;;;;;;;;5102415;27;61850;-78
2022/05/04 10:30:31;;;;;;;;;22.75;15.50;;;;;;;;5095079;27;61770;-76
2022/05/04 10:32:57;;;;;;;;;47.00;39.00;;;;;;;;5101095;27;61852;-72
2022/05/04 10:35:31;;;;;;;;;18.00;13.50;;;;;;;;5102966;27;62458;-74
2022/05/04 10:37:59;;;;;;;;;18.00;13.50;;;;;;;;5102849;27;62674;-74
2022/05/04 10:40:30;;;;;;;;;23.25;15.25;;;;;;;;5103342;27;62065;-73
2022/05/04 10:42:59;;;;;;;;;8.50;7.00;;;;;;;;5103738;27;61910;-73
2022/05/04 10:45:28;;;;;;;;;13.00;7.25;;;;;;;;5102336;27;61751;-74
2022/05/04 10:48:01;;;;;;;;;8.50;6.75;;;;;;;;5102986;27;61740;-74
2022/05/04 10:50:26;;;;;;;;;5.75;5.00;;;;;;;;5103299;27;62036;-73
2022/05/04 10:52:54;;;;;;;;;5.00;5.00;;;;;;;;5103416;27;61938;-76
2022/05/04 10:55:19;;;;;;;;;6.50;4.75;;;;;;;;5102752;27;62021;-76
2022/05/04 10:57:44;;;;;;;;;12.50;4.75;;;;;;;;5102988;27;61781;-75
2022/05/04 11:00:10;;;;;;;;;11.00;6.50;;;;;;;;5102000;27;61875;-76
2022/05/04 11:02:41;;;;;;;;;6.50;6.00;;;;;;;;5103458;27;61957;-76
2022/05/04 11:05:13;;;;;;;;;6.75;5.00;;;;;;;;5102177;27;61834;-75
2022/05/04 11:07:39;;;;;;;;;6.00;4.50;;;;;;;;5101115;27;62015;-75
2022/05/04 11:10:05;;;;;;;;;5.75;5.25;;;;;;;;5101180;27;61836;-76
2022/05/04 11:12:32;;;;;;;;;8.00;8.00;;;;;;;;5101685;27;62060;-74
2022/05/04 11:14:57;;;;;;;;;9.50;7.50;;;;;;;;5100405;27;62363;-75
2022/05/04 11:17:22;;;;;;;;;7.75;7.00;;;;;;;;5102991;27;61839;-75
2022/05/04 11:19:48;;;;;;;;;8.75;7.50;;;;;;;;5102866;27;61827;-75
2022/05/04 11:22:17;;;;;;;;;12.50;12.00;;;;;;;;5102329;27;61863;-74
2022/05/04 11:24:43;;;;;;;;;7.75;5.50;;;;;;;;5102276;27;62681;-75
2022/05/04 11:27:09;;;;;;;;;7.75;5.00;;;;;;;;5102724;27;61915;-76
2022/05/04 11:29:34;;;;;;;;;4.75;3.75;;;;;;;;5099578;27;61786;-74
2022/05/04 11:32:03;;;;;;;;;2.25;2.25;;;;;;;;5101788;27;61785;-73
2022/05/04 11:34:31;;;;;;;;;4.25;4.25;;;;;;;;5102204;27;61686;-75
2022/05/04 11:36:57;;;;;;;;;5.00;4.00;;;;;;;;5101843;27;61881;-74
2022/05/04 11:39:24;;;;;;;;;3.50;3.50;;;;;;;;5100395;27;62361;-75
2022/05/04 11:41:51;;;;;;;;;7.50;4.00;;;;;;;;5100469;27;61998;-74
2022/05/04 11:44:23;;;;;;;;;3.75;3.75;;;;;;;;5100041;27;61884;-77
2022/05/04 11:46:50;;;;;;;;;5.00;4.00;;;;;;;;5100486;27;62136;-77
2022/05/04 11:49:15;;;;;;;;;3.00;3.00;;;;;;;;5100052;27;62206;-76
2022/05/04 11:51:41;;;;;;;;;2.75;2.75;;;;;;;;5100299;27;61946;-76
2022/05/04 11:54:06;;;;;;;;;3.50;2.75;;;;;;;;5103914;27;61806;-74
2022/05/04 11:56:33;;;;;;;;;3.00;2.00;;;;;;;;5104542;27;62012;-75
2022/05/04 11:58:58;;;;;;;;;4.75;3.00;;;;;;;;5102572;27;61966;-75
2022/05/04 12:01:25;;;;;;;;;4.50;3.75;;;;;;;;5104875;27;62076;-75
2022/05/04 12:03:51;;;;;;;;;3.00;3.00;;;;;;;;5102625;27;63184;-75
2022/05/04 12:06:16;;;;;;;;;2.00;2.00;;;;;;;;5103635;27;61711;-75
2022/05/04 12:08:42;;;;;;;;;5.00;3.33;;;;;;;;5105400;27;62376;-76
2022/05/04 12:11:08;;;;;;;;;4.67;2.00;;;;;;;;5106056;27;61989;-75
2022/05/04 12:13:40;;;;;;;;;5.00;2.00;;;;;;;;5103327;27;64491;-75
2022/05/04 12:16:07;;;;;;;;;2.67;2.33;;;;;;;;5105939;27;61926;-78
2022/05/04 12:18:34;;;;;;;;;5.00;3.00;;;;;;;;5103868;27;61807;-75
2022/05/04 12:21:09;;;;;;;;;3.75;2.50;;;;;;;;5105924;27;62063;-78
2022/05/04 12:23:39;;;;;;;;;2.00;2.00;;;;;;;;5104733;27;61828;-76
2022/05/04 12:26:05;;;;;;;;;3.00;2.25;;;;;;;;5105322;27;61814;-77
2022/05/04 12:28:31;;;;;;;;;1.00;1.00;;;;;;;;5102715;27;62187;-77
2022/05/04 12:33:40;;;;;;;;;2.00;2.00;;;;;;;;5103059;27;62350;-77
2022/05/04 12:36:07;;;;;;;;;2.00;1.00;;;;;;;;5101811;27;62143;-76
2022/05/04 12:38:33;;;;;;;;;3.00;1.67;;;;;;;;5102385;27;62147;-76
2022/05/04 12:41:00;;;;;;;;;2.00;2.00;;;;;;;;5103364;27;62079;-76
2022/05/04 12:43:30;;;;;;;;;1.00;1.00;;;;;;;;5100624;27;62388;-76
2022/05/04 12:45:55;;;;;;;;;0.67;0.67;;;;;;;;5103067;27;61887;-76
2022/05/04 12:48:22;;;;;;;;;0.67;0.67;;;;;;;;5103017;27;61770;-76
2022/05/04 12:50:48;;;;;;;;;2.00;1.33;;;;;;;;5102896;27;62026;-76
2022/05/04 12:53:15;;;;;;;;;3.33;2.67;;;;;;;;5102493;27;62822;-76
2022/05/04 12:58:24;;;;;;;;;1.00;1.00;;;;;;;;5102088;27;61985;-76
2022/05/04 13:00:49;;;;;;;;;2.00;2.00;;;;;;;;5103392;27;61899;-76
2022/05/04 13:03:15;;;;;;;;;2.67;1.00;;;;;;;;5102230;27;61909;-76
2022/05/04 13:05:40;;;;;;;;;0.00;0.00;;;;;;;;5103355;27;62040;-76
2022/05/04 13:08:06;;;;;;;;;0.67;0.67;;;;;;;;5102795;27;61933;-76
2022/05/04 13:10:32;;;;;;;;;1.67;1.67;;;;;;;;5103708;27;61878;-76
2022/05/04 13:12:58;;;;;;;;;2.00;1.00;;;;;;;;5103068;27;62051;-76
2022/05/04 13:15:23;;;;;;;;;0.00;0.00;;;;;;;;5103158;27;61697;-76
2022/05/04 13:17:49;;;;;;;;;2.00;0.67;;;;;;;;5103443;27;62008;-76
2022/05/04 13:20:15;;;;;;;;;0.67;0.67;;;;;;;;5103405;27;61892;-76
2022/05/04 13:22:40;;;;;;;;;1.00;1.00;;;;;;;;5102586;27;62060;-77
2022/05/04 13:25:05;;;;;;;;;2.00;0.67;;;;;;;;5103719;27;61685;-76
2022/05/04 13:27:31;;;;;;;;;0.00;0.00;;;;;;;;5104165;27;61710;-78
2022/05/04 13:29:56;;;;;;;;;1.00;1.00;;;;;;;;5101761;27;61747;-78
2022/05/04 13:32:21;;;;;;;;;0.00;0.00;;;;;;;;5103676;27;61858;-78
2022/05/04 13:34:47;;;;;;;;;1.00;1.00;;;;;;;;5104102;27;61927;-78
2022/05/04 13:37:12;;;;;;;;;0.00;0.00;;;;;;;;5103983;27;61852;-78
2022/05/04 13:39:39;;;;;;;;;0.00;0.00;;;;;;;;5101502;27;62239;-78
2022/05/04 13:42:05;;;;;;;;;0.00;0.00;;;;;;;;5103493;27;62036;-78
2022/05/04 13:44:31;;;;;;;;;1.00;0.00;;;;;;;;5102331;27;61841;-78
2022/05/04 13:46:56;;;;;;;;;0.33;0.33;;;;;;;;5102637;27;61867;-78
2022/05/04 13:49:22;;;;;;;;;0.00;0.00;;;;;;;;5103582;27;61736;-78
2022/05/04 13:54:31;;;;;;;;;0.67;0.67;;;;;;;;5103054;27;61817;-75
2022/05/04 13:56:56;;;;;;;;;0.00;0.00;;;;;;;;5104053;27;61682;-76
2022/05/04 13:59:21;;;;;;;;;0.00;0.00;;;;;;;;5104498;27;61735;-73
2022/05/04 14:01:47;;;;;;;;;2.00;1.00;;;;;;;;5103627;27;61676;-73
2022/05/04 14:04:12;;;;;;;;;0.33;0.33;;;;;;;;5103695;27;61680;-75
2022/05/04 14:06:38;;;;;;;;;0.00;0.00;;;;;;;;5088660;27;62025;-75
2022/05/04 14:09:03;;;;;;;;;2.00;1.00;;;;;;;;5095326;27;62462;-73
2022/05/04 14:11:28;;;;;;;;;0.00;0.00;;;;;;;;5099354;27;62568;-74
2022/05/04 14:15:01;;;;;;;;;0.00;0.00;;;;;;;;5102733;27;61684;-73
2022/05/04 14:16:39;;;;;;;;;1.33;0.33;;;;;;;;5101576;27;61946;-73
2022/05/04 14:19:04;;;;;;;;;0.00;0.00;;;;;;;;5102062;27;61825;-75
2022/05/04 14:21:29;;;;;;;;;0.67;0.67;;;;;;;;5101689;27;62623;-75
2022/05/04 14:23:55;;;;;;;;;0.00;0.00;;;;;;;;5101358;27;61839;-75
2022/05/04 14:26:20;;;;;;;;;2.00;0.00;;;;;;;;5103103;27;62070;-75
2022/05/04 14:28:45;;;;;;;;;0.00;0.00;;;;;;;;5100783;27;62252;-75
2022/05/04 14:31:11;;;;;;;;;0.00;0.00;;;;;;;;5101733;27;62030;-72
2022/05/04 14:33:36;;;;;;;;;0.00;0.00;;;;;;;;5102440;27;61910;-78
2022/05/04 14:36:01;;;;;;;;;0.33;0.33;;;;;;;;5102531;27;62264;-75
2022/05/04 14:38:26;;;;;;;;;1.00;1.00;;;;;;;;5101174;27;62062;-76
2022/05/04 14:40:52;;;;;;;;;1.00;0.00;;;;;;;;5099434;27;63611;-76
2022/05/04 14:43:17;;;;;;;;;0.00;0.00;;;;;;;;5102336;27;61829;-76
2022/05/04 14:45:43;;;;;;;;;1.00;0.67;;;;;;;;5101014;27;61985;-76
2022/05/04 14:48:08;;;;;;;;;0.00;0.00;;;;;;;;5102545;27;61850;-76
2022/05/04 14:50:33;;;;;;;;;1.00;1.00;;;;;;;;5102309;27;62319;-76
2022/05/04 14:52:59;;;;;;;;;0.00;0.00;;;;;;;;5102557;27;62090;-79
2022/05/04 14:55:24;;;;;;;;;0.67;0.67;;;;;;;;5103384;27;62098;-76
2022/05/04 14:57:49;;;;;;;;;1.00;1.00;;;;;;;;5103162;27;61811;-77